»·PEaware :: UAL9 KDEN-VABB

UAL9 :: KDEN-VABB

FLIGHT INFORMATION

Flight Status: Arrived
Operator:
United Airlines
More flights by this operator :: More flights under this callsign
Pilot: Scott L. (17677)
Aircraft: Unknown
(A359)
More flights by this aircraft type
Origin: KDEN Denver Intl
United States
Destination: VABB Chhatrapati Shivaji Intl
India
More flights between these airports :: More routes between these airports
Route: YELLO4 CYS RECAP KIXCO VLN YVC YSF BOTER/N0497F360 RAMEL/K0913F380 85N180W 80N100E BINTA BADAL P864 NOR/K0891F390 G490 THN G489 BATRA/K0885F400 G489 CE R116 TOKMO W237 GV R484 RUBID G121 SOMIP G700 BLH A367 BALGO G661 GASTA/K0889F410 B357 RUDEK/K0889F400 B357 OSH L142 ASMAN B496 POMIR/K0902F410 G500 FIRUZ/N0489F410 P500 MOTMO/N0490F400 P500 GERRY/N0487F410 P500 ATROL/N0490F400 J118 DURKA/N0488F410 J118 DARIS/N0491F400 J118 VEBTA/N0488F410 J118 KAKNA/N0491F400 J118 PS Z302 NH/N0487F410 N893 TELEM G210 BOFIN POKON1A
File this flight plan on PilotEdge
Remarks: RMK / SIMBRIEF
Altitude:
(Current/Filed)
34,000ft
Speed:
(Current/Filed)
496kts
Departed: 14-Jan-21 11:24 AM
Arrived: 14-Jan-21 03:06 PM
Distance/Time
Traveled:
7260nm/3:42
Distance/Time
To Go:
Arrived

Flight Plot

Page will automatically refresh every two minutes.

Flight plan parsing failed; only flown route is shown


Map Options




Map Legend


Flown Route
Filed Route
Departure Airport
Arrival Airport
Navaid (VOR, NDB)
Fix

Horizontal Profiles

Position Reports

Time Latitude Longitude Heading Altitude Ground
Speed
14-Jan-21 11:22 40.255921 72.586812 207 39224ft 462kts
14-Jan-21 11:23 40.139599 72.515811 207 39224ft 462kts
14-Jan-21 11:24 40.022731 72.444880 207 39224ft 462kts
14-Jan-21 11:25 39.906217 72.374132 207 39223ft 462kts
14-Jan-21 11:26 39.789308 72.303305 207 39223ft 462kts
14-Jan-21 11:27 39.672363 72.232654 207 39223ft 462kts
14-Jan-21 11:28 39.556492 72.162963 207 39223ft 462kts
14-Jan-21 11:29 39.439413 72.092672 207 39225ft 462kts
14-Jan-21 11:30 39.321443 72.025002 204 39222ft 463kts
14-Jan-21 11:31 39.202184 71.961487 205 39225ft 463kts
14-Jan-21 11:32 39.083439 71.898205 205 39223ft 463kts
14-Jan-21 11:33 38.964785 71.835244 205 39226ft 456kts
14-Jan-21 11:34 38.849673 71.774377 206 39225ft 438kts
14-Jan-21 11:35 38.737397 71.714941 206 39167ft 438kts
14-Jan-21 11:36 38.622863 71.659863 199 39103ft 441kts
14-Jan-21 11:37 38.500305 71.635036 187 39086ft 450kts
14-Jan-21 11:38 38.373699 71.634402 185 39087ft 452kts
14-Jan-21 11:39 38.248292 71.634216 185 39086ft 452kts
14-Jan-21 11:40 38.122032 71.633965 185 39087ft 451kts
14-Jan-21 11:41 37.995752 71.633708 185 39087ft 453kts
14-Jan-21 11:42 37.870114 71.633487 185 39088ft 452kts
14-Jan-21 11:43 37.744525 71.633264 185 39087ft 451kts
14-Jan-21 11:44 37.619371 71.633027 185 39086ft 452kts
14-Jan-21 11:45 37.492778 71.632767 185 39086ft 452kts
14-Jan-21 11:46 37.367010 71.632505 185 39087ft 452kts
14-Jan-21 11:47 37.241541 71.632225 185 39086ft 452kts
14-Jan-21 11:48 37.115878 71.631942 185 39085ft 452kts
14-Jan-21 11:49 36.992232 71.631968 188 39091ft 433kts
14-Jan-21 11:50 36.874068 71.631441 190 39088ft 421kts
14-Jan-21 11:51 36.756990 71.630916 189 39085ft 420kts
14-Jan-21 11:53 36.639568 71.630911 189 39086ft 422kts
14-Jan-21 11:54 36.521942 71.632614 189 39087ft 423kts
14-Jan-21 11:55 36.406250 71.622440 197 39086ft 412kts
14-Jan-21 11:56 36.292878 71.601137 194 39086ft 416kts
14-Jan-21 11:57 36.174233 71.614022 174 39087ft 444kts
14-Jan-21 11:58 36.059056 71.681097 161 39407ft 466kts
14-Jan-21 11:59 35.944304 71.756109 169 40068ft 460kts
14-Jan-21 12:00 35.822739 71.786303 188 40089ft 433kts
14-Jan-21 12:01 35.705057 71.772052 196 40087ft 423kts
14-Jan-21 12:02 35.586728 71.762313 188 40087ft 434kts
14-Jan-21 12:03 35.464608 71.778744 178 40090ft 448kts
14-Jan-21 12:04 35.342655 71.811205 177 40085ft 448kts
14-Jan-21 12:05 35.221087 71.833020 188 40086ft 433kts
14-Jan-21 12:06 35.103268 71.818944 200 40088ft 417kts
14-Jan-21 12:07 34.991435 71.783238 203 40089ft 412kts
14-Jan-21 12:08 34.882014 71.748588 202 40097ft 403kts
14-Jan-21 12:09 34.768633 71.735549 189 40087ft 419kts
14-Jan-21 12:09 34.671082 71.740773 190 40086ft 417kts
14-Jan-21 12:11 34.544278 71.708651 212 40076ft 388kts
14-Jan-21 12:11 34.466826 71.655428 217 40064ft 383kts
14-Jan-21 12:12 34.374667 71.590574 214 40060ft 386kts
14-Jan-21 12:13 34.273394 71.542817 204 40061ft 398kts
14-Jan-21 12:14 34.162299 71.520999 196 40062ft 410kts
14-Jan-21 12:15 34.048681 71.507792 197 40061ft 408kts
14-Jan-21 12:16 33.939303 71.480049 206 40062ft 395kts
14-Jan-21 12:17 33.834759 71.439483 207 40062ft 394kts
14-Jan-21 12:18 33.730202 71.398774 207 40061ft 394kts
14-Jan-21 12:19 33.626171 71.358142 207 40061ft 394kts
14-Jan-21 12:20 33.521815 71.317050 206 40062ft 395kts
14-Jan-21 12:21 33.418144 71.274607 208 40061ft 392kts
14-Jan-21 12:22 33.314577 71.229452 208 40060ft 393kts
14-Jan-21 12:23 33.211748 71.185263 208 40061ft 393kts
14-Jan-21 12:24 33.108930 71.140897 208 40061ft 392kts
14-Jan-21 12:25 33.007689 71.097268 208 40063ft 380kts
14-Jan-21 12:26 32.909457 71.055837 208 40061ft 372kts
14-Jan-21 12:27 32.811544 71.015159 208 40060ft 373kts
14-Jan-21 12:28 32.713210 70.974128 208 40060ft 374kts
14-Jan-21 12:29 32.614761 70.933029 208 40060ft 375kts
14-Jan-21 12:30 32.515836 70.891808 208 40060ft 377kts
14-Jan-21 12:31 32.416252 70.850417 207 40060ft 379kts
14-Jan-21 12:32 32.316567 70.809081 207 40061ft 381kts
14-Jan-21 12:33 32.216176 70.767558 207 40061ft 381kts
14-Jan-21 12:34 32.115908 70.726178 207 40060ft 381kts
14-Jan-21 12:35 32.015819 70.684931 207 40061ft 381kts
14-Jan-21 12:36 31.915885 70.643856 207 40061ft 381kts
14-Jan-21 12:37 31.815763 70.602997 207 40061ft 381kts
14-Jan-21 12:38 31.715721 70.562095 207 40060ft 381kts
14-Jan-21 12:39 31.615517 70.521077 207 40061ft 381kts
14-Jan-21 12:40 31.515672 70.480196 207 40061ft 381kts
14-Jan-21 12:41 31.415815 70.439078 208 40061ft 381kts
14-Jan-21 12:42 31.316397 70.397425 208 40061ft 381kts
14-Jan-21 12:43 31.216793 70.355659 208 40061ft 381kts
14-Jan-21 12:44 31.117315 70.313664 207 40061ft 381kts
14-Jan-21 12:45 31.017574 70.271834 207 40061ft 381kts
14-Jan-21 12:46 30.919046 70.230766 207 40062ft 375kts
14-Jan-21 12:47 30.820991 70.190134 207 40062ft 372kts
14-Jan-21 12:48 30.723781 70.149841 208 40060ft 371kts
14-Jan-21 12:49 30.626746 70.109659 207 40059ft 371kts
14-Jan-21 12:50 30.529576 70.069470 207 40060ft 371kts
14-Jan-21 12:51 30.432155 70.029217 208 40059ft 371kts
14-Jan-21 12:52 30.334414 69.988824 207 40060ft 371kts
14-Jan-21 12:53 30.237177 69.948859 207 40061ft 371kts
14-Jan-21 12:54 30.139264 69.909380 207 40060ft 372kts
14-Jan-21 12:55 30.041824 69.869910 207 40059ft 372kts
14-Jan-21 12:56 29.944395 69.830406 207 40061ft 372kts
14-Jan-21 12:57 29.846811 69.791081 207 40060ft 371kts
14-Jan-21 12:58 29.749183 69.751810 207 40059ft 372kts
14-Jan-21 12:59 29.651777 69.712581 207 40059ft 371kts
14-Jan-21 13:00 29.554281 69.673409 207 40059ft 372kts
14-Jan-21 13:01 29.456836 69.634286 207 40043ft 371kts
14-Jan-21 13:02 29.359070 69.595151 207 40021ft 372kts
14-Jan-21 13:03 29.261355 69.556074 207 40014ft 372kts
14-Jan-21 13:04 29.163736 69.517129 207 40015ft 372kts
14-Jan-21 13:05 29.065926 69.478132 207 40012ft 374kts
14-Jan-21 13:06 28.966416 69.438560 207 40010ft 385kts
14-Jan-21 13:07 28.864718 69.398314 207 40016ft 387kts
14-Jan-21 13:08 28.762986 69.358174 207 40014ft 386kts
14-Jan-21 13:09 28.661146 69.317527 207 40013ft 386kts
14-Jan-21 13:10 28.559586 69.277244 207 40013ft 387kts
14-Jan-21 13:11 28.457604 69.237925 206 40013ft 385kts
14-Jan-21 13:12 28.356295 69.198985 207 40013ft 384kts
14-Jan-21 13:13 28.254583 69.159827 207 40013ft 384kts
14-Jan-21 13:14 28.153059 69.120802 207 40013ft 384kts
14-Jan-21 13:15 28.051547 69.081819 206 40013ft 386kts
14-Jan-21 13:16 27.949543 69.042738 206 40013ft 388kts
14-Jan-21 13:17 27.846920 69.003610 206 40014ft 390kts
14-Jan-21 13:18 27.743754 68.964273 206 40012ft 392kts
14-Jan-21 13:19 27.640358 68.924771 206 40012ft 395kts
14-Jan-21 13:20 27.535711 68.885079 206 40012ft 396kts
14-Jan-21 13:21 27.431389 68.845309 206 40011ft 397kts
14-Jan-21 13:22 27.326812 68.805406 206 40013ft 398kts
14-Jan-21 13:23 27.221918 68.765408 205 40013ft 398kts
14-Jan-21 13:24 27.117225 68.725569 206 40011ft 397kts
14-Jan-21 13:25 27.012657 68.685818 206 40015ft 397kts
14-Jan-21 13:26 26.907950 68.646087 206 40019ft 396kts
14-Jan-21 13:27 26.803842 68.606714 206 40029ft 395kts
14-Jan-21 13:28 26.699645 68.567350 206 40031ft 396kts
14-Jan-21 13:29 26.595140 68.528290 206 40032ft 395kts
14-Jan-21 13:30 26.490967 68.489064 206 40031ft 396kts
14-Jan-21 13:31 26.386514 68.449615 206 40031ft 396kts
14-Jan-21 13:33 26.281568 68.413915 200 40030ft 402kts
14-Jan-21 13:34 26.166954 68.402033 188 40030ft 418kts
14-Jan-21 13:35 26.050063 68.418082 181 40032ft 430kts
14-Jan-21 13:36 25.931789 68.439674 181 40031ft 429kts
14-Jan-21 13:37 25.813828 68.461260 181 40032ft 429kts
14-Jan-21 13:38 25.758712 68.471324 181 40031ft 430kts
14-Jan-21 13:39 25.724507 68.477553 181 40031ft 429kts
14-Jan-21 13:40 25.689583 68.483906 181 40031ft 428kts
14-Jan-21 13:41 25.531551 68.512562 181 40031ft 429kts
14-Jan-21 13:42 25.307725 68.552854 181 40031ft 429kts
14-Jan-21 13:43 25.118386 68.587606 181 40031ft 430kts
14-Jan-21 13:44 24.999983 68.609007 179 40030ft 432kts
14-Jan-21 13:45 24.880459 68.630726 178 40033ft 435kts
14-Jan-21 13:46 24.760608 68.652400 178 40031ft 435kts
14-Jan-21 13:47 24.641279 68.673833 178 40020ft 435kts
14-Jan-21 13:48 24.521961 68.695186 178 40011ft 435kts
14-Jan-21 13:48 24.422058 68.712994 178 40007ft 435kts
14-Jan-21 13:49 24.302868 68.734072 178 40006ft 435kts
14-Jan-21 13:51 24.165678 68.776372 155 40005ft 462kts
14-Jan-21 13:51 24.093632 68.867269 121 40003ft 501kts
14-Jan-21 13:52 24.052757 69.017264 111 38747ft 521kts
14-Jan-21 13:53 24.013188 69.171585 112 35240ft 531kts
14-Jan-21 13:54 23.972262 69.327853 111 31527ft 536kts
14-Jan-21 13:55 23.931141 69.484108 110 27803ft 529kts
14-Jan-21 13:56 23.891485 69.634001 110 25226ft 503kts
14-Jan-21 13:57 23.852894 69.777965 110 22635ft 481kts
14-Jan-21 13:58 23.816256 69.915151 109 20121ft 460kts
14-Jan-21 13:59 23.780623 70.048166 109 19049ft 454kts
14-Jan-21 14:00 23.744933 70.181059 109 19011ft 455kts
14-Jan-21 14:01 23.709034 70.314176 109 19002ft 454kts
14-Jan-21 14:02 23.673160 70.446668 109 19001ft 455kts
14-Jan-21 14:03 23.637151 70.579160 109 19001ft 454kts
14-Jan-21 14:04 23.601013 70.711818 109 19001ft 454kts
14-Jan-21 14:05 23.564768 70.844161 110 19002ft 451kts
14-Jan-21 14:06 23.528419 70.972581 117 18987ft 431kts
14-Jan-21 14:07 23.442644 71.055095 150 19004ft 412kts
14-Jan-21 14:08 23.345238 71.120868 149 19001ft 412kts
14-Jan-21 14:09 23.248344 71.186713 149 19001ft 412kts
14-Jan-21 14:10 23.150782 71.252994 149 19001ft 412kts
14-Jan-21 14:11 23.054333 71.318416 149 19001ft 412kts
14-Jan-21 14:12 22.955027 71.385715 150 18999ft 422kts
14-Jan-21 14:13 22.853414 71.454173 150 19000ft 434kts
14-Jan-21 14:14 22.750801 71.523234 150 19001ft 434kts
14-Jan-21 14:15 22.648083 71.592400 150 19001ft 434kts
14-Jan-21 14:16 22.545494 71.661415 150 19000ft 434kts
14-Jan-21 14:17 22.443019 71.730611 150 18538ft 431kts
14-Jan-21 14:18 22.341365 71.798749 150 17745ft 426kts
14-Jan-21 14:19 22.240811 71.865966 150 16930ft 422kts
14-Jan-21 14:20 22.141866 71.931986 150 16112ft 417kts
14-Jan-21 14:21 22.043482 71.997516 150 15306ft 412kts
14-Jan-21 14:22 21.946121 72.062228 150 14498ft 407kts
14-Jan-21 14:23 21.849644 72.126010 150 13690ft 403kts
14-Jan-21 14:24 21.753435 72.186893 157 12892ft 397kts
14-Jan-21 14:25 21.648051 72.218190 167 12099ft 391kts
14-Jan-21 14:26 21.543048 72.245164 167 12000ft 391kts
14-Jan-21 14:27 21.436150 72.272842 167 12000ft 391kts
14-Jan-21 14:28 21.330241 72.300255 167 12000ft 391kts
14-Jan-21 14:29 21.224015 72.327695 167 12000ft 391kts
14-Jan-21 14:30 21.118344 72.354937 167 12000ft 391kts
14-Jan-21 14:31 21.012730 72.382078 167 11993ft 392kts
14-Jan-21 14:32 20.906389 72.409435 168 11978ft 393kts
14-Jan-21 14:33 20.800107 72.436563 168 11973ft 393kts
14-Jan-21 14:34 20.692920 72.450744 194 11970ft 388kts
14-Jan-21 14:35 20.591524 72.410280 202 11973ft 387kts
14-Jan-21 14:36 20.492375 72.369524 202 11973ft 387kts
14-Jan-21 14:37 20.390876 72.328162 202 11973ft 387kts
14-Jan-21 14:38 20.290291 72.287257 202 11973ft 387kts
14-Jan-21 14:39 20.189898 72.246484 202 11973ft 387kts
14-Jan-21 14:40 20.089341 72.205691 202 11973ft 387kts
14-Jan-21 14:41 19.989445 72.165198 202 11973ft 387kts
14-Jan-21 14:42 19.888569 72.124319 202 11974ft 387kts
14-Jan-21 14:43 19.785742 72.094519 176 11974ft 391kts
14-Jan-21 14:44 19.692462 72.152250 139 11977ft 399kts
14-Jan-21 14:45 19.610225 72.231524 139 11973ft 399kts
14-Jan-21 14:46 19.527352 72.310222 139 11973ft 399kts
14-Jan-21 14:47 19.444237 72.388885 139 11973ft 399kts
14-Jan-21 14:48 19.361506 72.467020 139 11973ft 399kts
14-Jan-21 14:49 19.278350 72.545336 139 11973ft 399kts
14-Jan-21 14:50 19.205783 72.629805 103 11965ft 372kts
14-Jan-21 14:51 19.213588 72.731826 87 11195ft 331kts
14-Jan-21 14:52 19.215105 72.822952 90 10972ft 284kts
14-Jan-21 14:53 19.214660 72.906960 91 10973ft 286kts
14-Jan-21 14:54 19.214012 72.991318 91 10669ft 284kts
14-Jan-21 14:55 19.213269 73.073993 91 9756ft 281kts
14-Jan-21 14:56 19.212749 73.156206 90 8661ft 277kts
14-Jan-21 14:57 19.166982 73.205384 179 7291ft 260kts
14-Jan-21 14:58 19.108710 73.181363 258 5807ft 236kts
14-Jan-21 14:59 19.098167 73.115924 251 4422ft 224kts
14-Jan-21 15:00 19.091424 73.055610 270 3309ft 185kts
14-Jan-21 15:01 19.090762 73.006958 270 2406ft 146kts
14-Jan-21 15:02 19.090198 72.964091 270 1663ft 141kts
14-Jan-21 15:03 19.089625 72.922684 271 919ft 140kts
14-Jan-21 15:04 19.089056 72.881701 271 187ft 138kts
14-Jan-21 15:05 19.088526 72.853954 267 31ft 32kts
14-Jan-21 15:06 19.089919 72.850707 51 30ft 18kts
14-Jan-21 15:07 19.090988 72.853637 351 35ft 5kts

Navigation Log

Ident Type
Flight plan parsing failed, navigation log unavailable